Figridge, Texas
Current Conditions -  °F | °C
As of 3:15 AM on Wednesday 28 Jan 2015 (Local Time) from KBMT Reporting Station
Clear Clear  
Wind Chill: 45°   Ceiling: Unl
Heat Index: 45°   Visibility: 10mi
Dew Point: 43°   Wind: 0mph
Humidity: 95%   Direction: NA
Pressure: 30.16"   Gusts: NA
Location:  29.7905°N, 94.3844°W
Report Text: KBMT 280915Z AUTO 00000KT 10SM CLR 07/06 A3016 RMK AO2 T00710063
Loading
Personal Weather Stations






























Interactive Weather Map New forecast layout! Learn more

10-Day Weather Forecast

Advertisements
Track Severe Weather on mobile